createdAt,value
2019-05-20T00:00:18.812Z,12.90
2019-05-20T00:02:44.897Z,12.90
2019-05-20T00:05:11.155Z,12.90
2019-05-20T00:07:37.209Z,12.80
2019-05-20T00:10:06.564Z,12.90
2019-05-20T00:12:32.623Z,12.90
2019-05-20T00:14:58.704Z,12.90
2019-05-20T00:17:24.872Z,12.90
2019-05-20T00:19:51.007Z,12.90
2019-05-20T00:22:17.227Z,12.90
2019-05-20T00:24:43.301Z,12.90
2019-05-20T00:27:09.361Z,12.80
2019-05-20T00:29:35.447Z,12.70
2019-05-20T00:32:01.631Z,12.70
2019-05-20T00:34:35.364Z,12.70
2019-05-20T00:36:55.724Z,12.70
2019-05-20T00:39:21.815Z,12.60
2019-05-20T00:41:48.079Z,12.60
2019-05-20T00:44:14.736Z,12.60
2019-05-20T00:46:40.811Z,12.60
2019-05-20T00:49:06.868Z,12.60
2019-05-20T00:51:32.915Z,12.50
2019-05-20T00:53:59.077Z,12.50
2019-05-20T00:56:25.127Z,12.40
2019-05-20T00:58:51.259Z,12.40
2019-05-20T01:01:17.412Z,12.40
2019-05-20T01:03:43.579Z,12.30
2019-05-20T01:06:09.672Z,12.30
2019-05-20T01:08:35.728Z,12.30
2019-05-20T01:11:01.828Z,12.20
2019-05-20T01:13:27.880Z,12.30
2019-05-20T01:15:53.932Z,12.20
2019-05-20T01:18:20.035Z,12.20
2019-05-20T01:20:46.166Z,12.20
2019-05-20T01:23:12.255Z,12.20
2019-05-20T01:25:38.305Z,12.20
2019-05-20T01:28:04.388Z,12.20
2019-05-20T01:30:30.459Z,12.20
2019-05-20T01:33:10.820Z,12.20
2019-05-20T01:35:24.684Z,12.20
2019-05-20T01:37:50.833Z,12.20
2019-05-20T01:40:16.976Z,12.10
2019-05-20T01:42:43.043Z,12.10
2019-05-20T01:45:10.837Z,12.10
2019-05-20T01:47:37.106Z,12.10
2019-05-20T01:50:07.212Z,12.10
2019-05-20T01:52:33.296Z,12.10
2019-05-20T01:54:59.376Z,12.10
2019-05-20T01:57:25.438Z,12.10
2019-05-20T01:59:51.495Z,12.30
2019-05-20T02:07:10.516Z,12.20
2019-05-20T02:09:36.591Z,12.10
2019-05-20T02:12:02.762Z,12.10
2019-05-20T02:14:33.544Z,12.10
2019-05-20T02:17:02.559Z,12.10
2019-05-20T02:19:27.551Z,12.10
2019-05-20T02:21:53.621Z,12.10
2019-05-20T02:24:19.677Z,12.10
2019-05-20T02:26:45.751Z,12.10
2019-05-20T02:29:11.814Z,12.10
2019-05-20T02:31:37.876Z,12.10
2019-05-20T02:34:03.971Z,12.00
2019-05-20T02:36:30.123Z,12.00
2019-05-20T02:38:56.271Z,12.00
2019-05-20T02:41:22.354Z,12.00
2019-05-20T02:43:48.922Z,12.00
2019-05-20T02:46:15.187Z,12.00
2019-05-20T02:48:41.236Z,12.00
2019-05-20T02:51:07.407Z,12.10
2019-05-20T02:53:33.610Z,12.10
2019-05-20T02:55:59.752Z,12.10
2019-05-20T02:58:25.821Z,12.10
2019-05-20T03:00:51.899Z,12.10
2019-05-20T03:03:18.049Z,12.10
2019-05-20T03:05:44.104Z,12.20
2019-05-20T03:08:10.181Z,12.20
2019-05-20T03:10:36.333Z,12.20
2019-05-20T03:13:02.515Z,12.20
2019-05-20T03:15:28.568Z,12.20
2019-05-20T03:17:54.636Z,12.20
2019-05-20T03:20:20.705Z,12.20
2019-05-20T03:22:46.856Z,12.30
2019-05-20T03:25:13.440Z,12.30
2019-05-20T03:27:39.593Z,12.30
2019-05-20T03:30:06.992Z,12.30
2019-05-20T03:32:33.126Z,12.30
2019-05-20T03:35:01.192Z,12.30
2019-05-20T03:37:27.465Z,12.30
2019-05-20T03:39:53.519Z,12.30
2019-05-20T03:42:19.581Z,12.20
2019-05-20T03:44:45.748Z,12.20
2019-05-20T03:47:11.821Z,12.20
2019-05-20T03:49:37.873Z,12.10
2019-05-20T03:52:03.986Z,12.10
2019-05-20T03:54:30.061Z,12.10
2019-05-20T03:56:56.208Z,12.10
2019-05-20T03:59:22.278Z,12.10
2019-05-20T04:01:48.379Z,12.10
2019-05-20T04:04:14.559Z,12.00
2019-05-20T04:06:40.711Z,12.10
2019-05-20T04:09:06.776Z,12.10
2019-05-20T04:11:32.828Z,12.20
2019-05-20T04:13:58.939Z,12.20
2019-05-20T04:16:25.101Z,12.20
2019-05-20T04:18:54.002Z,12.20
2019-05-20T04:21:19.233Z,12.20
2019-05-20T04:23:45.413Z,12.30
2019-05-20T04:26:11.601Z,12.20
2019-05-20T04:28:37.752Z,12.10
2019-05-20T04:31:03.853Z,12.10
2019-05-20T04:33:29.995Z,12.10
2019-05-20T04:35:56.052Z,12.10
2019-05-20T04:38:22.104Z,12.10
2019-05-20T04:40:48.276Z,12.10
2019-05-20T04:43:14.364Z,12.10
2019-05-20T04:45:40.528Z,12.20
2019-05-20T04:48:06.704Z,12.30
2019-05-20T04:50:32.854Z,12.30
2019-05-20T04:52:58.940Z,12.30
2019-05-20T04:55:25.006Z,12.30
2019-05-20T04:57:51.226Z,12.30
2019-05-20T05:00:33.510Z,12.40
2019-05-20T05:02:59.731Z,12.30
2019-05-20T05:05:37.294Z,12.40
2019-05-20T05:07:53.883Z,12.50
2019-05-20T05:10:19.937Z,12.60
2019-05-20T05:12:45.988Z,12.70
2019-05-20T05:15:13.845Z,12.80
2019-05-20T05:17:39.905Z,12.80
2019-05-20T05:20:06.684Z,13.00
2019-05-20T05:22:32.828Z,13.10
2019-05-20T05:24:59.104Z,13.20
2019-05-20T05:27:25.151Z,13.30
2019-05-20T05:29:51.244Z,13.40
2019-05-20T05:32:19.197Z,13.50
2019-05-20T05:34:45.304Z,13.60
2019-05-20T05:37:11.347Z,13.80
2019-05-20T05:39:37.403Z,13.80
2019-05-20T05:42:03.594Z,13.90
2019-05-20T05:44:29.829Z,13.80
2019-05-20T05:46:55.880Z,13.80
2019-05-20T05:49:21.957Z,14.10
2019-05-20T05:51:48.027Z,13.80
2019-05-20T05:54:14.086Z,13.80
2019-05-20T05:56:40.268Z,13.80
2019-05-20T05:59:06.425Z,13.80
2019-05-20T06:01:32.498Z,13.80
2019-05-20T06:03:58.709Z,13.80
2019-05-20T06:06:24.837Z,13.80
2019-05-20T06:08:50.948Z,13.80
2019-05-20T06:11:17.064Z,13.90
2019-05-20T06:13:43.624Z,13.90
2019-05-20T06:16:09.828Z,14.00
2019-05-20T06:18:35.898Z,14.00
2019-05-20T06:21:02.114Z,14.10
2019-05-20T06:23:28.268Z,14.10
2019-05-20T06:25:54.342Z,14.20
2019-05-20T06:28:20.492Z,14.20
2019-05-20T06:30:46.543Z,14.20
2019-05-20T06:33:12.713Z,14.20
2019-05-20T06:35:39.068Z,14.30
2019-05-20T06:38:07.343Z,14.40
2019-05-20T06:40:33.401Z,14.50
2019-05-20T06:42:59.467Z,14.60
2019-05-20T06:45:25.519Z,14.60
2019-05-20T06:47:51.579Z,14.70
2019-05-20T06:50:17.747Z,14.90
2019-05-20T06:52:43.920Z,15.10
2019-05-20T06:55:10.523Z,15.20
2019-05-20T06:57:37.282Z,15.20
2019-05-20T07:00:06.647Z,15.20
2019-05-20T07:02:32.706Z,15.20
2019-05-20T07:04:58.780Z,15.30
2019-05-20T07:07:24.938Z,15.40
2019-05-20T07:09:51.292Z,15.40
2019-05-20T07:12:17.349Z,15.60
2019-05-20T07:14:43.416Z,15.60
2019-05-20T07:17:09.522Z,15.60
2019-05-20T07:19:35.572Z,15.70
2019-05-20T07:22:01.619Z,15.70
2019-05-20T07:24:27.716Z,15.90
2019-05-20T07:26:53.787Z,16.00
2019-05-20T07:29:19.861Z,16.20
2019-05-20T07:31:46.012Z,16.30
2019-05-20T07:34:12.172Z,16.60
2019-05-20T07:36:38.349Z,16.70
2019-05-20T07:39:06.300Z,16.70
2019-05-20T07:41:32.400Z,16.90
2019-05-20T07:43:58.464Z,17.00
2019-05-20T07:46:24.908Z,17.00
2019-05-20T07:48:51.224Z,17.00
2019-05-20T07:51:19.409Z,16.90
2019-05-20T07:53:45.617Z,16.90
2019-05-20T07:56:15.573Z,17.00
2019-05-20T07:58:45.437Z,17.20
2019-05-20T08:01:11.692Z,17.30
2019-05-20T08:03:38.680Z,17.40
2019-05-20T08:06:05.208Z,17.50
2019-05-20T08:08:31.269Z,17.70
2019-05-20T08:10:57.331Z,18.00
2019-05-20T08:13:23.416Z,18.00
2019-05-20T08:15:49.485Z,18.30
2019-05-20T08:18:15.552Z,18.70
2019-05-20T08:20:41.605Z,18.80
2019-05-20T08:23:07.672Z,18.80
2019-05-20T08:25:33.796Z,19.00
2019-05-20T08:27:59.903Z,19.30
2019-05-20T08:30:32.219Z,19.40
2019-05-20T08:32:58.372Z,19.50
2019-05-20T08:35:24.428Z,19.50
2019-05-20T08:37:50.492Z,19.60
2019-05-20T08:40:16.589Z,19.80
2019-05-20T08:42:42.720Z,19.70
2019-05-20T08:45:09.308Z,19.60
2019-05-20T08:47:35.481Z,19.40
2019-05-20T08:50:04.343Z,19.20
2019-05-20T08:52:30.207Z,19.10
2019-05-20T08:54:56.362Z,19.10
2019-05-20T08:57:22.482Z,18.90
2019-05-20T08:59:48.744Z,18.80
2019-05-20T09:02:14.792Z,18.80
2019-05-20T09:04:40.856Z,18.80
2019-05-20T09:07:06.916Z,18.60
2019-05-20T09:09:33.264Z,18.60
2019-05-20T09:11:59.644Z,18.70
2019-05-20T09:14:25.706Z,18.60
2019-05-20T09:16:51.868Z,18.60
2019-05-20T09:19:17.977Z,18.60
2019-05-20T09:21:44.089Z,18.80
2019-05-20T09:24:10.162Z,19.00
2019-05-20T09:26:36.221Z,19.10
2019-05-20T09:29:02.265Z,19.10
2019-05-20T09:31:28.483Z,19.10
2019-05-20T09:33:54.986Z,19.00
2019-05-20T09:36:21.084Z,19.10
2019-05-20T09:38:47.205Z,19.10
2019-05-20T09:41:13.348Z,19.30
2019-05-20T09:43:39.494Z,19.70
2019-05-20T09:46:08.169Z,19.80
2019-05-20T09:48:33.634Z,19.70
2019-05-20T09:50:59.712Z,19.80
2019-05-20T09:53:25.861Z,19.90
2019-05-20T09:55:52.065Z,19.80
2019-05-20T09:58:18.178Z,20.00
2019-05-20T10:00:45.084Z,20.00
2019-05-20T10:03:11.281Z,20.20
2019-05-20T10:05:37.949Z,20.20
2019-05-20T10:08:04.234Z,20.20
2019-05-20T10:10:30.689Z,20.30
2019-05-20T10:12:56.797Z,20.60
2019-05-20T10:15:23.256Z,20.70
2019-05-20T10:17:49.414Z,20.80
2019-05-20T10:20:15.778Z,20.60
2019-05-20T10:22:41.941Z,20.40
2019-05-20T10:25:08.697Z,20.00
2019-05-20T10:27:34.805Z,20.00
2019-05-20T10:30:00.950Z,20.00
2019-05-20T10:32:27.010Z,19.90
2019-05-20T10:34:53.074Z,19.90
2019-05-20T10:37:19.192Z,19.80
2019-05-20T10:39:45.352Z,19.70
2019-05-20T10:42:11.404Z,19.70
2019-05-20T10:44:37.468Z,19.70
2019-05-20T10:47:03.572Z,19.60
2019-05-20T10:49:29.707Z,19.80
2019-05-20T10:51:55.761Z,20.00
2019-05-20T10:54:21.872Z,20.10
2019-05-20T10:56:47.930Z,20.20
2019-05-20T10:59:14.031Z,20.30
2019-05-20T11:01:40.278Z,20.40
2019-05-20T11:04:06.395Z,20.50
2019-05-20T11:06:32.456Z,20.30
2019-05-20T11:09:13.135Z,20.00
2019-05-20T11:11:26.512Z,20.00
2019-05-20T11:13:52.716Z,20.00
2019-05-20T11:16:18.772Z,19.90
2019-05-20T11:18:44.829Z,20.10
2019-05-20T11:21:11.260Z,20.20
2019-05-20T11:23:37.327Z,20.40
2019-05-20T11:26:03.524Z,20.50
2019-05-20T11:28:29.687Z,20.40
2019-05-20T11:30:56.041Z,20.50
2019-05-20T11:33:22.093Z,20.50
2019-05-20T11:35:48.148Z,20.20
2019-05-20T11:38:14.202Z,20.00
2019-05-20T11:40:40.265Z,20.10
2019-05-20T11:43:06.421Z,20.00
2019-05-20T11:45:32.638Z,19.80
2019-05-20T11:47:58.716Z,19.70
2019-05-20T11:50:24.871Z,19.60
2019-05-20T11:52:50.931Z,19.60
2019-05-20T11:55:16.984Z,19.70
2019-05-20T11:57:43.148Z,19.90
2019-05-20T12:00:10.412Z,20.10
2019-05-20T12:02:36.484Z,20.30
2019-05-20T12:05:06.366Z,20.50
2019-05-20T12:07:32.423Z,20.60
2019-05-20T12:09:58.491Z,20.70
2019-05-20T12:12:24.606Z,20.50
2019-05-20T12:14:50.944Z,20.60
2019-05-20T12:17:17.006Z,20.60
2019-05-20T12:19:43.166Z,20.70
2019-05-20T12:22:09.228Z,20.60
2019-05-20T12:24:35.292Z,20.30
2019-05-20T12:27:01.369Z,20.30
2019-05-20T12:29:27.424Z,20.40
2019-05-20T12:31:53.479Z,20.40
2019-05-20T12:34:19.548Z,20.50
2019-05-20T12:36:45.712Z,20.50
2019-05-20T12:39:11.797Z,20.60
2019-05-20T12:41:38.015Z,20.60
2019-05-20T12:44:11.750Z,20.80
2019-05-20T12:46:32.273Z,20.70
2019-05-20T12:48:58.407Z,20.80
2019-05-20T12:51:24.544Z,20.90
2019-05-20T12:53:50.593Z,21.00
2019-05-20T12:56:19.469Z,21.00
2019-05-20T12:58:44.652Z,21.20
2019-05-20T13:01:10.712Z,21.20
2019-05-20T13:03:36.808Z,21.10
2019-05-20T13:06:03.168Z,21.10
2019-05-20T13:08:29.222Z,21.10
2019-05-20T13:10:55.377Z,21.10
2019-05-20T13:13:22.185Z,21.10
2019-05-20T13:15:48.380Z,21.10
2019-05-20T13:18:14.549Z,21.00
2019-05-20T13:20:40.608Z,21.00
2019-05-20T13:23:08.956Z,21.00
2019-05-20T13:25:34.669Z,21.00
2019-05-20T13:28:00.732Z,21.20
2019-05-20T13:30:27.253Z,21.20
2019-05-20T13:32:53.455Z,21.10
2019-05-20T13:35:19.517Z,21.10
2019-05-20T13:37:45.591Z,21.10
2019-05-20T13:40:12.244Z,21.10
2019-05-20T13:42:38.353Z,21.20
2019-05-20T13:45:05.316Z,21.40
2019-05-20T13:47:31.396Z,21.50
2019-05-20T13:49:57.451Z,21.50
2019-05-20T13:52:23.517Z,21.60
2019-05-20T13:54:49.610Z,21.70
2019-05-20T13:57:15.810Z,21.70
2019-05-20T13:59:41.973Z,21.50
2019-05-20T14:02:08.075Z,21.30
2019-05-20T14:04:34.144Z,21.20
2019-05-20T14:07:00.305Z,21.20
2019-05-20T14:09:26.392Z,21.30
2019-05-20T14:11:52.458Z,21.40
2019-05-20T14:14:18.525Z,21.40
2019-05-20T14:16:44.656Z,21.50
2019-05-20T14:19:10.835Z,21.50
2019-05-20T14:21:36.924Z,21.50
2019-05-20T14:24:03.180Z,21.70
2019-05-20T14:26:29.240Z,21.70
2019-05-20T14:28:55.340Z,21.60
2019-05-20T14:31:21.498Z,21.60
2019-05-20T14:33:47.681Z,21.50
2019-05-20T14:36:36.081Z,21.40
2019-05-20T14:38:41.704Z,21.40
2019-05-20T14:41:20.937Z,21.50
2019-05-20T14:43:36.121Z,21.70
2019-05-20T14:46:02.333Z,21.80
2019-05-20T14:48:28.476Z,21.80
2019-05-20T14:50:54.536Z,21.60
2019-05-20T14:53:20.603Z,21.50
2019-05-20T14:55:46.684Z,21.60
2019-05-20T14:58:12.833Z,21.70
2019-05-20T15:00:38.961Z,21.80
2019-05-20T15:03:05.033Z,22.00
2019-05-20T15:05:31.460Z,22.20
2019-05-20T15:07:57.781Z,22.50
2019-05-20T15:10:24.248Z,22.60
2019-05-20T15:12:50.316Z,22.70
2019-05-20T15:15:16.493Z,22.80
2019-05-20T15:17:42.560Z,23.00
2019-05-20T15:20:09.117Z,23.00
2019-05-20T15:22:35.204Z,23.10
2019-05-20T15:25:01.393Z,23.10
2019-05-20T15:27:27.527Z,23.20
2019-05-20T15:29:53.696Z,23.10
2019-05-20T15:32:19.752Z,22.70
2019-05-20T15:34:45.921Z,22.60
2019-05-20T15:37:12.056Z,22.50
2019-05-20T15:39:38.251Z,22.50
2019-05-20T15:42:04.316Z,22.50
2019-05-20T15:44:30.416Z,22.40
2019-05-20T15:46:56.486Z,22.50
2019-05-20T15:49:22.639Z,22.30
2019-05-20T15:51:48.799Z,22.10
2019-05-20T15:54:14.864Z,22.20
2019-05-20T15:56:40.956Z,22.20
2019-05-20T15:59:07.033Z,22.30
2019-05-20T16:01:33.087Z,22.30
2019-05-20T16:03:59.168Z,22.20
2019-05-20T16:06:25.229Z,22.20
2019-05-20T16:08:51.332Z,22.30
2019-05-20T16:11:17.392Z,22.40
2019-05-20T16:13:43.473Z,22.40
2019-05-20T16:16:12.816Z,22.40
2019-05-20T16:18:37.588Z,22.30
2019-05-20T16:21:03.646Z,22.30
2019-05-20T16:23:29.701Z,22.30
2019-05-20T16:25:55.780Z,22.50
2019-05-20T16:28:21.872Z,22.60
2019-05-20T16:30:47.930Z,22.60
2019-05-20T16:33:14.019Z,22.70
2019-05-20T16:35:40.077Z,22.80
2019-05-20T16:38:06.123Z,22.90
2019-05-20T16:40:32.188Z,22.90
2019-05-20T16:42:58.256Z,22.80
2019-05-20T16:45:24.618Z,22.70
2019-05-20T16:47:50.673Z,22.60
2019-05-20T16:50:17.174Z,22.70
2019-05-20T16:52:43.361Z,22.80
2019-05-20T16:55:09.909Z,22.80
2019-05-20T16:57:35.973Z,22.60
2019-05-20T17:00:07.425Z,22.70
2019-05-20T17:02:31.976Z,22.60
2019-05-20T17:04:58.035Z,22.70
2019-05-20T17:07:24.127Z,22.70
2019-05-20T17:09:50.508Z,22.90
2019-05-20T17:12:16.639Z,23.10
2019-05-20T17:14:42.825Z,23.10
2019-05-20T17:17:08.880Z,23.10
2019-05-20T17:19:34.931Z,23.00
2019-05-20T17:22:01.011Z,22.90
2019-05-20T17:24:27.081Z,22.90
2019-05-20T17:26:53.156Z,22.90
2019-05-20T17:29:19.215Z,23.00
2019-05-20T17:31:45.402Z,22.80
2019-05-20T17:34:11.617Z,22.80
2019-05-20T17:36:37.692Z,22.70
2019-05-20T17:39:04.335Z,22.60
2019-05-20T17:41:30.442Z,22.50
2019-05-20T17:43:56.575Z,22.30
2019-05-20T17:46:22.736Z,22.20
2019-05-20T17:48:48.795Z,22.20
2019-05-20T17:51:15.008Z,22.00
2019-05-20T17:53:41.076Z,22.10
2019-05-20T17:56:07.273Z,22.10
2019-05-20T17:58:33.367Z,22.10
2019-05-20T18:01:14.877Z,22.30
2019-05-20T18:03:30.852Z,22.30
2019-05-20T18:05:57.066Z,22.20
2019-05-20T18:08:25.145Z,22.10
2019-05-20T18:10:51.292Z,21.90
2019-05-20T18:13:17.348Z,21.90
2019-05-20T18:15:43.417Z,21.90
2019-05-20T18:18:09.513Z,21.90
2019-05-20T18:20:35.563Z,21.80
2019-05-20T18:23:01.621Z,21.70
2019-05-20T18:25:27.694Z,21.50
2019-05-20T18:27:53.918Z,21.40
2019-05-20T18:30:20.590Z,21.10
2019-05-20T18:32:46.844Z,21.50
2019-05-20T18:35:13.204Z,20.80
2019-05-20T18:37:39.411Z,20.60
2019-05-20T18:40:14.001Z,20.50
2019-05-20T18:42:35.388Z,20.30
2019-05-20T18:45:01.454Z,20.20
2019-05-20T18:47:27.604Z,20.10
2019-05-20T18:49:53.666Z,20.00
2019-05-20T18:52:19.724Z,19.90
2019-05-20T18:54:45.779Z,19.90
2019-05-20T18:57:11.912Z,19.80
2019-05-20T18:59:37.999Z,19.80
2019-05-20T19:02:05.724Z,19.70
2019-05-20T19:04:32.104Z,19.70
2019-05-20T19:06:58.281Z,19.60
2019-05-20T19:09:24.330Z,19.60
2019-05-20T19:11:50.379Z,19.60
2019-05-20T19:14:16.448Z,19.60
2019-05-20T19:16:42.496Z,19.50
2019-05-20T19:19:08.580Z,19.40
2019-05-20T19:21:34.732Z,19.40
2019-05-20T19:24:00.841Z,19.30
2019-05-20T19:26:26.890Z,19.20
2019-05-20T19:28:52.952Z,19.20
2019-05-20T19:31:19.155Z,19.10
2019-05-20T19:33:45.216Z,19.00
2019-05-20T19:36:11.367Z,19.00
2019-05-20T19:38:37.448Z,18.90
2019-05-20T19:41:03.921Z,18.90
2019-05-20T19:43:29.971Z,18.80
2019-05-20T19:45:56.043Z,18.80
2019-05-20T19:48:22.097Z,18.70
2019-05-20T19:50:48.261Z,18.70
2019-05-20T19:53:14.327Z,18.60
2019-05-20T19:55:40.372Z,18.60
2019-05-20T19:58:06.431Z,18.60
2019-05-20T20:00:32.479Z,18.60
2019-05-20T20:02:58.543Z,18.40
2019-05-20T20:05:24.621Z,18.40
2019-05-20T20:07:50.732Z,20.00
2019-05-20T20:10:16.896Z,18.30
2019-05-20T20:12:42.950Z,18.30
2019-05-20T20:15:16.412Z,18.30
2019-05-20T20:17:42.580Z,18.30
2019-05-20T20:20:08.627Z,18.20
2019-05-20T20:22:34.687Z,18.20
2019-05-20T20:25:00.744Z,18.20
2019-05-20T20:27:26.804Z,18.20
2019-05-20T20:29:52.856Z,15.90
2019-05-20T20:32:35.141Z,18.20
2019-05-20T20:34:46.912Z,18.20
2019-05-20T20:37:13.075Z,18.20
2019-05-20T20:39:39.130Z,18.10
2019-05-20T20:42:05.187Z,18.10
2019-05-20T20:44:31.247Z,18.10
2019-05-20T20:46:57.307Z,18.00
2019-05-20T20:49:23.363Z,18.00
2019-05-20T20:51:49.460Z,18.00
2019-05-20T20:54:15.579Z,18.00
2019-05-20T20:56:41.663Z,18.00
2019-05-20T20:59:08.079Z,17.90
2019-05-20T21:01:34.184Z,17.90
2019-05-20T21:04:00.248Z,17.90
2019-05-20T21:06:26.299Z,17.90
2019-05-20T21:08:52.365Z,17.90
2019-05-20T21:11:18.435Z,17.90
2019-05-20T21:13:44.500Z,17.80
2019-05-20T21:16:10.575Z,17.80
2019-05-20T21:18:36.640Z,17.80
2019-05-20T21:21:02.720Z,17.80
2019-05-20T21:23:28.781Z,17.80
2019-05-20T21:25:54.839Z,17.80
2019-05-20T21:28:20.932Z,17.80
2019-05-20T21:30:46.995Z,17.80
2019-05-20T21:33:13.047Z,17.80
2019-05-20T21:35:39.184Z,17.80
2019-05-20T21:38:05.348Z,17.80
2019-05-20T21:40:31.568Z,17.80
2019-05-20T21:42:57.711Z,17.90
2019-05-20T21:45:23.803Z,17.80
2019-05-20T21:47:49.958Z,17.90
2019-05-20T21:50:16.015Z,17.80
2019-05-20T21:52:42.099Z,17.80
2019-05-20T21:55:08.755Z,17.80
2019-05-20T21:57:34.811Z,17.80
2019-05-20T22:00:00.904Z,17.80
2019-05-20T22:02:27.052Z,17.80
2019-05-20T22:04:53.107Z,17.70
2019-05-20T22:07:19.249Z,17.80
2019-05-20T22:09:45.382Z,17.70
2019-05-20T22:12:11.596Z,17.70
2019-05-20T22:14:37.712Z,17.70
2019-05-20T22:17:03.804Z,17.70
2019-05-20T22:19:29.996Z,17.60
2019-05-20T22:22:15.875Z,17.60
2019-05-20T22:24:41.931Z,17.60
2019-05-20T22:27:08.080Z,17.70
2019-05-20T22:29:34.142Z,17.60
2019-05-20T22:32:00.347Z,17.60
2019-05-20T22:34:26.412Z,17.60
2019-05-20T22:36:52.564Z,17.50
2019-05-20T22:39:18.659Z,17.50
2019-05-20T22:41:44.704Z,17.50
2019-05-20T22:44:10.756Z,17.50
2019-05-20T22:46:36.841Z,17.40
2019-05-20T22:49:02.890Z,17.40
2019-05-20T22:51:28.948Z,17.40
2019-05-20T22:53:55.014Z,17.30
2019-05-20T22:56:21.097Z,17.30
2019-05-20T22:58:47.268Z,17.30
2019-05-20T23:01:13.368Z,17.30
2019-05-20T23:03:39.571Z,17.20
2019-05-20T23:06:05.632Z,17.20
2019-05-20T23:08:31.699Z,17.20
2019-05-20T23:10:57.856Z,17.10
2019-05-20T23:13:23.915Z,17.10
2019-05-20T23:15:49.971Z,17.00
2019-05-20T23:18:16.043Z,17.10
2019-05-20T23:20:42.419Z,17.00
2019-05-20T23:23:08.579Z,17.00
2019-05-20T23:25:34.632Z,16.90
2019-05-20T23:28:00.712Z,16.90
2019-05-20T23:30:26.763Z,16.90
2019-05-20T23:32:52.827Z,16.80
2019-05-20T23:35:19.016Z,16.80
2019-05-20T23:37:45.080Z,16.70
2019-05-20T23:40:11.248Z,16.70
2019-05-20T23:42:37.300Z,16.60
2019-05-20T23:45:08.442Z,16.60
2019-05-20T23:47:34.612Z,16.60
2019-05-20T23:50:00.683Z,16.60
2019-05-20T23:52:26.739Z,16.50
2019-05-20T23:54:52.795Z,16.50
2019-05-20T23:57:18.871Z,16.50
2019-05-20T23:59:45.019Z,16.50
